Terminal Aerodrome Forecast
Issued by NWS Norman, OK

Home | Current Version | Previous Version | Text Only | Print | Product List | Glossary On
Versions: 1 2 3 4 5 6 7 8 9 10 11 12 13 14
000
FTUS44 KOUN 190520
TAFSPS
TAF
KSPS 190520Z 1906/2006 18016KT P6SM FEW009 BKN200 WS015/22050KT
     FM191300 19013KT P6SM BKN015
     FM191700 19018G25KT P6SM FEW027 BKN180
     FM200000 16012KT P6SM BKN150=

USA.gov is the U.S. government's official web portal to all federal, state and local government web resources and services.